createdAt,value
2023-07-07T00:02:18.866Z,95284.22
2023-07-07T00:04:48.213Z,95281.28
2023-07-07T00:07:14.855Z,95279.28
2023-07-07T00:09:41.595Z,95285.69
2023-07-07T00:12:08.667Z,95288.00
2023-07-07T00:14:35.412Z,95294.41
2023-07-07T00:17:02.184Z,95298.97
2023-07-07T00:19:30.594Z,95298.84
2023-07-07T00:21:57.218Z,95298.91
2023-07-07T00:24:23.880Z,95299.22
2023-07-07T00:26:50.527Z,95302.97
2023-07-07T00:29:17.326Z,95296.84
2023-07-07T00:31:44.278Z,95304.72
2023-07-07T00:34:10.922Z,95300.66
2023-07-07T00:36:37.585Z,95303.25
2023-07-07T00:39:04.293Z,95304.91
2023-07-07T00:41:30.977Z,95302.50
2023-07-07T00:44:10.811Z,95301.41
2023-07-07T00:46:39.223Z,95298.44
2023-07-07T00:49:20.477Z,95295.75
2023-07-07T00:51:50.070Z,95293.63
2023-07-07T00:54:25.058Z,95297.41
2023-07-07T00:56:55.149Z,95298.94
2023-07-07T00:59:27.104Z,95296.81
2023-07-07T01:01:59.511Z,95305.44
2023-07-07T01:04:29.325Z,95304.97
2023-07-07T01:07:05.762Z,95312.13
2023-07-07T01:09:32.436Z,95320.75
2023-07-07T01:11:59.124Z,95313.72
2023-07-07T01:14:30.228Z,95322.06
2023-07-07T01:17:16.243Z,95324.06
2023-07-07T01:20:06.708Z,95320.09
2023-07-07T01:22:47.060Z,95318.72
2023-07-07T01:25:41.177Z,95321.09
2023-07-07T01:28:22.999Z,95322.66
2023-07-07T01:30:59.966Z,95316.44
2023-07-07T01:33:32.542Z,95319.84
2023-07-07T01:35:59.384Z,95324.66
2023-07-07T01:38:41.357Z,95327.03
2023-07-07T01:41:29.927Z,95328.91
2023-07-07T01:44:17.577Z,95331.44
2023-07-07T01:47:00.982Z,95335.22
2023-07-07T01:49:44.016Z,95336.00
2023-07-07T01:52:33.534Z,95335.50
2023-07-07T01:55:28.589Z,95332.03
2023-07-07T01:58:01.479Z,95323.47
2023-07-07T02:00:31.453Z,95329.06
2023-07-07T02:03:00.317Z,95320.75
2023-07-07T02:05:32.015Z,95326.41
2023-07-07T02:07:59.281Z,95321.81
2023-07-07T02:10:25.979Z,95320.19
2023-07-07T02:12:52.747Z,95329.84
2023-07-07T02:15:19.436Z,95330.41
2023-07-07T02:17:46.361Z,95325.38
2023-07-07T02:20:13.158Z,95321.22
2023-07-07T02:22:39.825Z,95316.13
2023-07-07T02:25:07.810Z,95321.19
2023-07-07T02:27:34.487Z,95317.91
2023-07-07T02:30:01.200Z,95319.34
2023-07-07T02:32:27.857Z,95312.94
2023-07-07T02:34:54.512Z,95315.81
2023-07-07T02:37:21.314Z,95323.44
2023-07-07T02:39:48.325Z,95319.88
2023-07-07T02:42:15.944Z,95319.84
2023-07-07T02:44:43.229Z,95317.44
2023-07-07T02:47:10.567Z,95324.72
2023-07-07T02:49:37.408Z,95321.81
2023-07-07T02:52:06.212Z,95315.06
2023-07-07T02:54:32.931Z,95323.72
2023-07-07T02:56:59.606Z,95311.28
2023-07-07T02:59:26.429Z,95316.91
2023-07-07T03:01:53.130Z,95308.56
2023-07-07T03:04:19.815Z,95309.63
2023-07-07T03:06:46.546Z,95315.50
2023-07-07T03:09:13.210Z,95311.16
2023-07-07T03:11:39.849Z,95325.47
2023-07-07T03:14:06.581Z,95323.56
2023-07-07T03:16:33.451Z,95323.84
2023-07-07T03:19:06.032Z,95325.50
2023-07-07T03:21:33.084Z,95333.00
2023-07-07T03:24:00.012Z,95335.69
2023-07-07T03:26:28.252Z,95332.78
2023-07-07T03:28:55.449Z,95331.66
2023-07-07T03:31:28.391Z,95345.09
2023-07-07T03:33:58.456Z,95350.41
2023-07-07T03:36:28.302Z,95339.16
2023-07-07T03:38:55.143Z,95334.63
2023-07-07T03:41:24.244Z,95347.22
2023-07-07T03:43:51.362Z,95352.28
2023-07-07T03:46:21.241Z,95346.13
2023-07-07T03:48:49.712Z,95337.84
2023-07-07T03:51:19.256Z,95343.19
2023-07-07T03:53:46.513Z,95348.25
2023-07-07T03:56:13.372Z,95345.03
2023-07-07T03:58:40.335Z,95354.41
2023-07-07T04:01:12.179Z,95351.44
2023-07-07T04:03:39.020Z,95358.94
2023-07-07T04:06:06.030Z,95359.50
2023-07-07T04:08:32.726Z,95356.53
2023-07-07T04:11:02.469Z,95348.78
2023-07-07T04:13:31.874Z,95351.16
2023-07-07T04:16:13.261Z,95347.69
2023-07-07T04:18:42.024Z,95350.88
2023-07-07T04:21:19.386Z,95351.97
2023-07-07T04:23:48.379Z,95350.16
2023-07-07T04:26:15.669Z,95351.50
2023-07-07T04:28:42.409Z,95350.69
2023-07-07T04:31:12.242Z,95361.66
2023-07-07T04:33:40.111Z,95357.03
2023-07-07T04:36:11.075Z,95365.84
2023-07-07T04:38:37.867Z,95366.09
2023-07-07T04:41:10.468Z,95373.56
2023-07-07T04:43:39.914Z,95369.50
2023-07-07T04:46:08.948Z,95368.41
2023-07-07T04:48:35.725Z,95369.97
2023-07-07T04:51:05.366Z,95367.28
2023-07-07T04:53:34.458Z,95365.91
2023-07-07T04:56:03.618Z,95365.91
2023-07-07T04:58:33.168Z,95370.41
2023-07-07T05:01:17.310Z,95367.72
2023-07-07T05:03:46.312Z,95371.41
2023-07-07T05:06:14.115Z,95370.81
2023-07-07T05:08:43.325Z,95371.59
2023-07-07T05:11:15.345Z,95374.06
2023-07-07T05:13:42.396Z,95367.63
2023-07-07T05:16:14.564Z,95380.06
2023-07-07T05:18:41.778Z,95391.09
2023-07-07T05:21:10.570Z,95389.16
2023-07-07T05:23:38.334Z,95385.97
2023-07-07T05:26:06.516Z,95396.75
2023-07-07T05:28:34.195Z,95397.06
2023-07-07T05:31:01.573Z,95406.38
2023-07-07T05:33:34.019Z,95398.81
2023-07-07T05:36:04.056Z,95400.34
2023-07-07T05:38:31.394Z,95399.25
2023-07-07T05:40:59.162Z,95403.03
2023-07-07T05:43:27.545Z,95401.63
2023-07-07T05:46:03.637Z,95407.25
2023-07-07T05:48:31.012Z,95406.16
2023-07-07T05:51:01.848Z,95406.31
2023-07-07T05:53:29.070Z,95418.66
2023-07-07T05:56:06.156Z,95426.34
2023-07-07T05:58:32.887Z,95426.66
2023-07-07T06:01:00.150Z,95416.13
2023-07-07T06:03:27.183Z,95422.41
2023-07-07T06:05:54.052Z,95413.94
2023-07-07T06:08:22.806Z,95425.47
2023-07-07T06:10:50.512Z,95421.97
2023-07-07T06:13:18.566Z,95427.28
2023-07-07T06:15:46.348Z,95431.88
2023-07-07T06:18:13.369Z,95430.72
2023-07-07T06:20:40.219Z,95433.50
2023-07-07T06:23:06.891Z,95431.84
2023-07-07T06:25:33.521Z,95431.22
2023-07-07T06:28:00.345Z,95426.22
2023-07-07T06:30:27.017Z,95433.44
2023-07-07T06:32:53.727Z,95436.25
2023-07-07T06:35:20.378Z,95435.69
2023-07-07T06:37:47.415Z,95417.41
2023-07-07T06:40:14.097Z,95422.53
2023-07-07T06:42:40.711Z,95424.03
2023-07-07T06:45:07.929Z,95430.47
2023-07-07T06:47:34.751Z,95432.78
2023-07-07T06:50:01.456Z,95432.00
2023-07-07T06:52:28.112Z,95435.56
2023-07-07T06:54:54.869Z,95432.50
2023-07-07T06:57:22.286Z,95432.41
2023-07-07T06:59:51.536Z,95446.22
2023-07-07T07:02:18.337Z,95444.38
2023-07-07T07:04:46.162Z,95443.13
2023-07-07T07:07:12.870Z,95440.22
2023-07-07T07:09:39.540Z,95434.31
2023-07-07T07:12:06.789Z,95437.22
2023-07-07T07:14:33.488Z,95436.84
2023-07-07T07:17:00.167Z,95432.97
2023-07-07T07:19:26.829Z,95439.47
2023-07-07T07:21:53.543Z,95433.63
2023-07-07T07:24:20.222Z,95427.78
2023-07-07T07:26:46.849Z,95435.09
2023-07-07T07:29:13.506Z,95434.50
2023-07-07T07:31:40.226Z,95429.66
2023-07-07T07:34:23.582Z,95429.56
2023-07-07T07:36:52.380Z,95418.88
2023-07-07T07:39:20.413Z,95420.09
2023-07-07T07:41:49.745Z,95418.75
2023-07-07T07:44:18.423Z,95421.66
2023-07-07T07:46:47.370Z,95425.00
2023-07-07T07:49:15.080Z,95431.34
2023-07-07T07:51:43.306Z,95423.84
2023-07-07T07:54:13.188Z,95426.22
2023-07-07T07:56:41.119Z,95436.00
2023-07-07T07:59:08.947Z,95439.03
2023-07-07T08:01:38.308Z,95430.50
2023-07-07T08:04:06.459Z,95433.75
2023-07-07T08:06:34.041Z,95427.72
2023-07-07T08:09:01.019Z,95429.41
2023-07-07T08:11:47.573Z,95424.72
2023-07-07T08:14:26.555Z,95417.72
2023-07-07T08:16:53.385Z,95416.69
2023-07-07T08:19:20.672Z,95423.50
2023-07-07T08:21:48.027Z,95426.22
2023-07-07T08:24:14.913Z,95417.34
2023-07-07T08:26:41.885Z,95415.19
2023-07-07T08:29:09.089Z,95415.34
2023-07-07T08:31:35.872Z,95413.31
2023-07-07T08:34:04.376Z,95416.16
2023-07-07T08:36:32.052Z,95426.78
2023-07-07T08:39:11.027Z,95426.44
2023-07-07T08:41:38.012Z,95434.31
2023-07-07T08:44:05.066Z,95425.72
2023-07-07T08:47:08.199Z,95439.09
2023-07-07T08:49:43.437Z,95440.00
2023-07-07T08:52:29.302Z,95437.66
2023-07-07T08:55:21.691Z,95432.75
2023-07-07T08:58:23.979Z,95431.81
2023-07-07T09:01:10.318Z,95426.22
2023-07-07T09:04:01.153Z,95439.63
2023-07-07T09:07:07.789Z,95432.06
2023-07-07T09:09:55.855Z,95427.44
2023-07-07T09:12:29.542Z,95417.81
2023-07-07T09:15:00.904Z,95417.84
2023-07-07T09:17:36.515Z,95416.13
2023-07-07T09:20:06.346Z,95413.72
2023-07-07T09:23:06.157Z,95409.28
2023-07-07T09:25:50.070Z,95400.72
2023-07-07T09:28:18.974Z,95422.59
2023-07-07T09:30:49.845Z,95421.41
2023-07-07T09:33:21.754Z,95420.00
2023-07-07T09:36:10.125Z,95408.50
2023-07-07T09:39:01.422Z,95413.28
2023-07-07T09:41:44.207Z,95411.03
2023-07-07T09:44:26.274Z,95405.84
2023-07-07T09:47:19.596Z,95404.31
2023-07-07T09:50:00.232Z,95401.50
2023-07-07T09:52:29.692Z,95403.59
2023-07-07T09:55:01.215Z,95400.97
2023-07-07T09:57:43.106Z,95401.69
2023-07-07T10:00:16.339Z,95403.50
2023-07-07T10:02:45.886Z,95407.38
2023-07-07T10:05:19.606Z,95401.03
2023-07-07T10:07:46.983Z,95401.44
2023-07-07T10:10:14.986Z,95400.66
2023-07-07T10:12:42.650Z,95391.06
2023-07-07T10:15:33.348Z,95387.72
2023-07-07T10:18:12.130Z,95384.22
2023-07-07T10:20:38.887Z,95380.00
2023-07-07T10:23:11.657Z,95387.69
2023-07-07T10:25:39.909Z,95381.50
2023-07-07T10:28:12.941Z,95383.94
2023-07-07T10:30:41.273Z,95379.09
2023-07-07T10:33:11.839Z,95384.78
2023-07-07T10:35:38.552Z,95380.91
2023-07-07T10:38:06.049Z,95385.31
2023-07-07T10:40:33.850Z,95387.25
2023-07-07T10:43:00.545Z,95387.84
2023-07-07T10:45:27.206Z,95394.88
2023-07-07T10:47:53.999Z,95387.28
2023-07-07T10:50:23.658Z,95393.41
2023-07-07T10:55:48.588Z,95392.41
2023-07-07T10:58:37.716Z,95391.41
2023-07-07T11:01:28.668Z,95381.69
2023-07-07T11:04:14.119Z,95382.97
2023-07-07T11:06:50.951Z,95386.09
2023-07-07T11:09:57.062Z,95379.06
2023-07-07T11:13:00.976Z,95381.97
2023-07-07T11:15:47.692Z,95377.66
2023-07-07T11:18:30.621Z,95380.59
2023-07-07T11:21:09.373Z,95378.16
2023-07-07T11:23:51.867Z,95374.69
2023-07-07T11:26:38.208Z,95366.97
2023-07-07T11:29:22.581Z,95364.34
2023-07-07T11:31:55.251Z,95365.19
2023-07-07T11:34:28.112Z,95358.84
2023-07-07T11:37:00.567Z,95351.50
2023-07-07T11:39:40.264Z,95345.69
2023-07-07T11:42:34.672Z,95349.78
2023-07-07T11:45:54.552Z,95349.31
2023-07-07T11:49:05.131Z,95343.22
2023-07-07T11:51:55.019Z,95347.66
2023-07-07T11:54:24.379Z,95345.56
2023-07-07T11:57:10.921Z,95345.00
2023-07-07T11:59:55.824Z,95350.94
2023-07-07T12:02:34.048Z,95339.75
2023-07-07T12:05:02.748Z,95334.63
2023-07-07T12:07:48.028Z,95334.38
2023-07-07T12:10:33.859Z,95322.00
2023-07-07T12:13:29.643Z,95326.66
2023-07-07T12:16:23.210Z,95325.06
2023-07-07T12:19:03.037Z,95323.91
2023-07-07T12:21:34.992Z,95319.38
2023-07-07T12:24:22.992Z,95318.16
2023-07-07T12:26:58.617Z,95317.03
2023-07-07T12:29:25.904Z,95321.28
2023-07-07T12:31:52.609Z,95323.63
2023-07-07T12:34:34.249Z,95319.44
2023-07-07T12:37:01.499Z,95318.19
2023-07-07T12:39:28.179Z,95328.31
2023-07-07T12:41:54.928Z,95321.78
2023-07-07T12:44:22.226Z,95323.03
2023-07-07T12:46:49.092Z,95322.38
2023-07-07T12:49:24.742Z,95312.34
2023-07-07T12:51:58.962Z,95317.75
2023-07-07T12:54:37.189Z,95317.31
2023-07-07T12:57:14.397Z,95324.00
2023-07-07T12:59:42.553Z,95320.00
2023-07-07T13:02:26.711Z,95324.25
2023-07-07T13:05:05.987Z,95323.47
2023-07-07T13:07:34.866Z,95324.72
2023-07-07T13:10:01.510Z,95318.84
2023-07-07T13:12:48.142Z,95320.94
2023-07-07T13:15:22.137Z,95317.13
2023-07-07T13:17:52.644Z,95314.56
2023-07-07T13:20:21.969Z,95315.22
2023-07-07T13:23:07.346Z,95315.56
2023-07-07T13:25:36.097Z,95314.88
2023-07-07T13:28:09.500Z,95316.34
2023-07-07T13:30:38.567Z,95311.59
2023-07-07T13:33:07.657Z,95317.13
2023-07-07T13:35:38.285Z,95304.38
2023-07-07T13:38:14.054Z,95311.31
2023-07-07T13:40:40.929Z,95300.81
2023-07-07T13:43:23.020Z,95308.06
2023-07-07T13:45:50.128Z,95307.22
2023-07-07T13:48:24.240Z,95299.75
2023-07-07T13:50:51.015Z,95297.16
2023-07-07T13:53:19.416Z,95298.78
2023-07-07T13:55:50.748Z,95292.69
2023-07-07T13:58:22.371Z,95286.25
2023-07-07T14:00:59.597Z,95286.88
2023-07-07T14:03:27.306Z,95279.81
2023-07-07T14:05:56.250Z,95287.50
2023-07-07T14:08:27.364Z,95287.31
2023-07-07T14:10:56.301Z,95277.38
2023-07-07T14:13:32.283Z,95276.97
2023-07-07T14:16:16.697Z,95279.75
2023-07-07T14:19:02.207Z,95273.28
2023-07-07T14:21:32.972Z,95273.66
2023-07-07T14:24:00.707Z,95279.13
2023-07-07T14:26:28.279Z,95269.06
2023-07-07T14:28:59.188Z,95265.47
2023-07-07T14:31:26.930Z,95266.25
2023-07-07T14:34:04.161Z,95253.97
2023-07-07T14:36:37.939Z,95251.00
2023-07-07T14:39:23.173Z,95249.47
2023-07-07T14:41:49.982Z,95245.03
2023-07-07T14:44:49.080Z,95250.44
2023-07-07T14:47:23.288Z,95238.09
2023-07-07T14:49:51.674Z,95232.59
2023-07-07T14:52:30.708Z,95228.16
2023-07-07T14:55:00.967Z,95229.59
2023-07-07T14:57:27.742Z,95225.16
2023-07-07T14:59:55.287Z,95228.00
2023-07-07T15:02:29.677Z,95226.88
2023-07-07T15:05:21.896Z,95222.41
2023-07-07T15:07:50.734Z,95232.00
2023-07-07T15:10:18.833Z,95229.13
2023-07-07T15:12:48.699Z,95227.22
2023-07-07T15:15:16.431Z,95222.84
2023-07-07T15:17:43.108Z,95231.91
2023-07-07T15:20:18.691Z,95224.22
2023-07-07T15:22:45.627Z,95218.09
2023-07-07T15:25:12.473Z,95215.06
2023-07-07T15:27:39.486Z,95215.63
2023-07-07T15:30:17.776Z,95210.22
2023-07-07T15:32:46.576Z,95212.84
2023-07-07T15:35:15.405Z,95218.16
2023-07-07T15:37:49.536Z,95214.19
2023-07-07T15:40:22.453Z,95216.88
2023-07-07T15:42:52.423Z,95213.34
2023-07-07T15:45:19.666Z,95217.47
2023-07-07T15:47:47.537Z,95213.38
2023-07-07T15:50:20.795Z,95205.44
2023-07-07T15:52:48.010Z,95210.22
2023-07-07T15:55:14.859Z,95204.84
2023-07-07T15:57:41.688Z,95200.25
2023-07-07T16:00:24.470Z,95193.94
2023-07-07T16:02:51.234Z,95195.53
2023-07-07T16:05:18.075Z,95189.91
2023-07-07T16:07:45.683Z,95190.66
2023-07-07T16:10:13.419Z,95186.50
2023-07-07T16:12:40.229Z,95184.78
2023-07-07T16:15:07.927Z,95184.31
2023-07-07T16:17:34.836Z,95176.84
2023-07-07T16:20:17.949Z,95180.84
2023-07-07T16:22:50.466Z,95172.75
2023-07-07T16:25:17.449Z,95174.97
2023-07-07T16:27:45.020Z,95181.69
2023-07-07T16:30:22.075Z,95164.47
2023-07-07T16:32:48.980Z,95167.56
2023-07-07T16:35:16.425Z,95179.28
2023-07-07T16:37:43.721Z,95165.41
2023-07-07T16:40:30.703Z,95171.31
2023-07-07T16:42:57.634Z,95160.31
2023-07-07T16:45:24.287Z,95164.50
2023-07-07T16:47:51.041Z,95155.53
2023-07-07T16:50:32.390Z,95164.50
2023-07-07T16:53:00.934Z,95176.19
2023-07-07T16:55:28.906Z,95165.22
2023-07-07T16:57:55.935Z,95167.56
2023-07-07T17:00:28.183Z,95173.19
2023-07-07T17:02:55.955Z,95161.13
2023-07-07T17:05:25.144Z,95166.81
2023-07-07T17:07:51.872Z,95172.59
2023-07-07T17:10:36.706Z,95168.56
2023-07-07T17:13:03.656Z,95166.16
2023-07-07T17:15:31.071Z,95167.69
2023-07-07T17:17:57.871Z,95166.81
2023-07-07T17:20:28.189Z,95173.31
2023-07-07T17:22:55.182Z,95170.78
2023-07-07T17:25:22.224Z,95165.75
2023-07-07T17:27:51.116Z,95168.97
2023-07-07T17:30:26.816Z,95162.41
2023-07-07T17:32:54.045Z,95163.91
2023-07-07T17:35:26.598Z,95164.38
2023-07-07T17:37:53.951Z,95158.38
2023-07-07T17:40:41.003Z,95157.44
2023-07-07T17:43:07.748Z,95163.44
2023-07-07T17:45:34.434Z,95156.44
2023-07-07T17:48:01.331Z,95163.78
2023-07-07T17:50:34.029Z,95162.94
2023-07-07T17:53:01.043Z,95163.69
2023-07-07T17:55:27.952Z,95166.53
2023-07-07T17:57:54.623Z,95159.09
2023-07-07T18:00:24.974Z,95164.22
2023-07-07T18:02:52.735Z,95161.81
2023-07-07T18:05:20.629Z,95165.81
2023-07-07T18:07:47.387Z,95161.13
2023-07-07T18:10:22.297Z,95160.25
2023-07-07T18:12:51.410Z,95164.03
2023-07-07T18:15:18.105Z,95158.72
2023-07-07T18:18:00.548Z,95157.91
2023-07-07T18:21:48.564Z,95155.66
2023-07-07T18:23:57.260Z,95153.53
2023-07-07T18:26:35.229Z,95152.72
2023-07-07T18:29:09.362Z,95161.56
2023-07-07T18:31:38.772Z,95165.44
2023-07-07T18:34:07.021Z,95165.84
2023-07-07T18:39:15.636Z,95160.66
2023-07-07T18:41:42.302Z,95158.72
2023-07-07T18:44:08.980Z,95154.59
2023-07-07T18:46:35.737Z,95160.03
2023-07-07T18:49:02.500Z,95159.84
2023-07-07T18:51:29.195Z,95150.47
2023-07-07T18:53:55.869Z,95150.91
2023-07-07T18:56:33.088Z,95148.16
2023-07-07T18:58:59.804Z,95152.00
2023-07-07T19:01:28.884Z,95159.16
2023-07-07T19:03:56.272Z,95160.59
2023-07-07T19:06:23.357Z,95155.94
2023-07-07T19:08:50.055Z,95160.31
2023-07-07T19:11:16.766Z,95155.03
2023-07-07T19:13:44.151Z,95153.84
2023-07-07T19:16:25.017Z,95149.34
2023-07-07T19:19:00.942Z,95146.53
2023-07-07T19:21:30.577Z,95145.47
2023-07-07T19:23:59.010Z,95153.56
2023-07-07T19:26:37.429Z,95156.38
2023-07-07T19:29:06.427Z,95159.81
2023-07-07T19:31:34.778Z,95162.69
2023-07-07T19:34:01.522Z,95171.16
2023-07-07T19:36:31.973Z,95172.03
2023-07-07T19:38:58.845Z,95172.81
2023-07-07T19:41:29.037Z,95172.66
2023-07-07T19:43:56.561Z,95178.25
2023-07-07T19:46:33.146Z,95178.25
2023-07-07T19:49:01.895Z,95171.47
2023-07-07T19:51:33.605Z,95178.13
2023-07-07T19:54:03.171Z,95179.19
2023-07-07T19:56:31.592Z,95181.13
2023-07-07T19:58:59.275Z,95177.94
2023-07-07T20:01:31.794Z,95182.94
2023-07-07T20:03:59.300Z,95182.47
2023-07-07T20:06:28.597Z,95176.72
2023-07-07T20:08:56.745Z,95185.63
2023-07-07T20:11:26.178Z,95184.72
2023-07-07T20:13:54.557Z,95189.47
2023-07-07T20:16:40.779Z,95192.69
2023-07-07T20:19:13.963Z,95195.38
2023-07-07T20:21:41.034Z,95203.84
2023-07-07T20:24:22.970Z,95201.28
2023-07-07T20:26:50.642Z,95201.16
2023-07-07T20:29:19.842Z,95201.19
2023-07-07T20:31:47.680Z,95189.81
2023-07-07T20:34:14.626Z,95190.53
2023-07-07T20:36:47.034Z,95189.28
2023-07-07T20:39:17.526Z,95191.53
2023-07-07T20:41:45.654Z,95190.56
2023-07-07T20:44:12.305Z,95189.75
2023-07-07T20:46:41.805Z,95193.13
2023-07-07T20:49:26.411Z,95200.13
2023-07-07T20:51:53.513Z,95205.19
2023-07-07T20:54:21.075Z,95207.09
2023-07-07T20:56:48.108Z,95224.81
2023-07-07T20:59:27.235Z,95219.25
2023-07-07T21:01:56.423Z,95223.72
2023-07-07T21:04:23.694Z,95220.03
2023-07-07T21:06:50.381Z,95220.69
2023-07-07T21:09:17.610Z,95225.97
2023-07-07T21:11:44.638Z,95222.75
2023-07-07T21:14:11.411Z,95227.50
2023-07-07T21:16:45.272Z,95227.34
2023-07-07T21:19:12.818Z,95226.41
2023-07-07T21:21:39.707Z,95237.06
2023-07-07T21:24:06.996Z,95228.16
2023-07-07T21:26:35.902Z,95230.34
2023-07-07T21:29:03.020Z,95224.81
2023-07-07T21:31:31.195Z,95228.94
2023-07-07T21:34:01.476Z,95221.28
2023-07-07T21:36:37.827Z,95222.66
2023-07-07T21:39:25.910Z,95215.63
2023-07-07T21:42:06.954Z,95211.16
2023-07-07T21:44:39.858Z,95219.09
2023-07-07T21:47:06.576Z,95207.94
2023-07-07T21:49:37.452Z,95208.78
2023-07-07T21:52:24.451Z,95206.19
2023-07-07T21:54:55.252Z,95208.28
2023-07-07T21:57:42.408Z,95211.44
2023-07-07T22:00:24.111Z,95211.28
2023-07-07T22:02:55.584Z,95212.66
2023-07-07T22:05:26.686Z,95215.63
2023-07-07T22:07:54.280Z,95218.91
2023-07-07T22:10:43.885Z,95219.88
2023-07-07T22:13:11.016Z,95222.06
2023-07-07T22:15:39.540Z,95222.72
2023-07-07T22:18:20.968Z,95225.72
2023-07-07T22:21:05.486Z,95230.78
2023-07-07T22:23:33.400Z,95230.66
2023-07-07T22:26:00.461Z,95233.97
2023-07-07T22:28:32.257Z,95239.91
2023-07-07T22:31:00.459Z,95241.38
2023-07-07T22:33:29.198Z,95240.47
2023-07-07T22:35:56.741Z,95236.50
2023-07-07T22:38:30.374Z,95237.22
2023-07-07T22:40:58.311Z,95245.03
2023-07-07T22:43:25.321Z,95252.78
2023-07-07T22:45:55.233Z,95242.75
2023-07-07T22:48:22.925Z,95245.50
2023-07-07T22:50:50.736Z,95249.66
2023-07-07T22:53:17.570Z,95256.09
2023-07-07T22:55:46.412Z,95264.03
2023-07-07T22:58:16.452Z,95263.88
2023-07-07T23:00:43.578Z,95265.41
2023-07-07T23:03:10.682Z,95259.53
2023-07-07T23:05:43.801Z,95261.16
2023-07-07T23:08:21.871Z,95258.09
2023-07-07T23:10:48.614Z,95254.81
2023-07-07T23:13:16.539Z,95239.19
2023-07-07T23:15:43.740Z,95241.47
2023-07-07T23:18:12.184Z,95247.63
2023-07-07T23:20:39.736Z,95251.50
2023-07-07T23:23:07.400Z,95256.63
2023-07-07T23:25:34.076Z,95255.06
2023-07-07T23:28:08.504Z,95255.66
2023-07-07T23:30:53.805Z,95249.41
2023-07-07T23:33:20.594Z,95250.00
2023-07-07T23:35:53.140Z,95251.59
2023-07-07T23:38:21.469Z,95254.72
2023-07-07T23:40:50.929Z,95246.56
2023-07-07T23:43:17.714Z,95244.22
2023-07-07T23:45:45.248Z,95254.22
2023-07-07T23:51:01.152Z,95271.81
2023-07-07T23:53:29.949Z,95268.13
2023-07-07T23:55:57.799Z,95263.72
2023-07-07T23:58:26.974Z,95262.53
